Time;durP1;ratioP1;P1;durP2;ratioP2;P2;SDS_P1;SDS_P2;PMS_P1;PMS_P2;Temp;Humidity;BMP_temperature;BMP_pressure;BME280_temperature;BME280_humidity;BME280_pressure;Samples;Min_cycle;Max_cycle;Signal;HPM_P1;HPM_P2
2022/10/18 00:00:47;;;;;;;;;16.25;12.50;;;;;18.19;94.17;102072.28;5000882;28;45398;-50
2022/10/18 00:03:12;;;;;;;;;14.25;11.50;;;;;18.19;94.21;102072.28;5018879;28;45337;-49
2022/10/18 00:05:38;;;;;;;;;12.00;8.75;;;;;18.14;94.34;102071.94;5018388;28;46197;-51
2022/10/18 00:08:03;;;;;;;;;11.75;9.75;;;;;18.12;94.40;102066.75;5018394;28;45293;-47
2022/10/18 00:10:28;;;;;;;;;11.25;11.25;;;;;18.10;94.44;102062.50;5018473;28;45445;-48
2022/10/18 00:12:54;;;;;;;;;15.25;13.00;;;;;18.07;94.59;102076.28;5018737;28;45443;-48
2022/10/18 00:15:19;;;;;;;;;13.75;11.50;;;;;18.02;94.43;102071.41;5018157;28;46098;-52
2022/10/18 00:17:44;;;;;;;;;8.00;7.50;;;;;17.97;94.06;102065.66;5018205;28;45325;-51
2022/10/18 00:20:10;;;;;;;;;11.75;9.50;;;;;17.90;94.43;102076.22;5018380;28;45321;-48
2022/10/18 00:22:38;;;;;;;;;10.50;8.75;;;;;18.01;94.27;102095.81;5018322;28;45505;-48
2022/10/18 00:25:05;;;;;;;;;6.50;5.50;;;;;18.01;93.89;102096.66;5018321;28;45457;-51
2022/10/18 00:27:31;;;;;;;;;13.00;11.50;;;;;18.01;94.50;102096.66;5018059;28;45420;-50
2022/10/18 00:29:58;;;;;;;;;11.00;7.75;;;;;17.90;93.80;102080.78;5018497;28;45409;-51
2022/10/18 00:32:24;;;;;;;;;10.25;8.00;;;;;18.02;93.95;102102.88;5019225;28;45398;-49
2022/10/18 00:34:49;;;;;;;;;10.00;9.50;;;;;18.00;93.96;102097.66;5018585;28;45991;-49
2022/10/18 00:37:14;;;;;;;;;11.50;9.00;;;;;18.03;93.65;102101.88;5018783;28;45304;-48
2022/10/18 00:39:40;;;;;;;;;8.00;7.75;;;;;18.03;93.88;102102.69;5019784;28;45251;-47
2022/10/18 00:42:06;;;;;;;;;8.75;7.50;;;;;18.03;93.81;102102.69;5019864;28;45415;-49
2022/10/18 00:44:31;;;;;;;;;11.75;8.50;;;;;18.03;93.49;102091.09;5018777;28;45234;-48
2022/10/18 00:47:03;;;;;;;;;11.00;10.00;;;;;17.99;93.98;102095.94;5019135;28;45436;-48
2022/10/18 00:49:41;;;;;;;;;7.00;7.00;;;;;17.92;94.12;102090.41;5018596;28;45307;-56
2022/10/18 00:52:29;;;;;;;;;9.75;8.75;;;;;17.94;94.19;102098.28;5018211;28;45390;-50
2022/10/18 00:54:56;;;;;;;;;12.25;9.75;;;;;17.99;94.42;102105.88;5017758;28;45447;-50
2022/10/18 00:57:22;;;;;;;;;15.00;11.50;;;;;18.01;94.04;102109.28;4999460;28;45389;-50
2022/10/18 00:59:48;;;;;;;;;12.25;11.00;;;;;18.02;93.95;102108.25;5017872;28;45305;-47
2022/10/18 01:02:17;;;;;;;;;12.75;9.50;;;;;18.02;94.01;102100.19;5017961;28;45551;-50
2022/10/18 01:04:43;;;;;;;;;9.00;9.00;;;;;18.04;93.87;102109.78;5017606;28;45334;-52
2022/10/18 01:07:17;;;;;;;;;11.50;10.75;;;;;18.01;93.55;102104.72;5017265;28;45460;-50
2022/10/18 01:09:53;;;;;;;;;13.75;11.25;;;;;18.05;93.55;102111.47;5017654;28;45414;-50
2022/10/18 01:12:18;;;;;;;;;17.00;11.75;;;;;18.07;93.86;102108.59;5017855;28;45409;-48
2022/10/18 01:14:52;;;;;;;;;9.75;9.00;;;;;18.05;93.67;102103.41;5017381;28;46339;-49
2022/10/18 01:17:27;;;;;;;;;7.20;7.20;;;;;18.07;93.94;102105.91;5017278;28;45424;-50
2022/10/18 01:20:08;;;;;;;;;8.00;8.00;;;;;18.03;94.15;102105.41;5017032;28;45388;-51
2022/10/18 01:23:02;;;;;;;;;13.00;9.00;;;;;17.99;94.49;102101.34;5017465;28;45847;-52
2022/10/18 01:26:18;;;;;;;;;9.00;9.00;;;;;18.10;94.55;102109.13;5017263;28;46240;-50
2022/10/18 01:29:11;;;;;;;;;10.20;10.20;;;;;18.12;94.53;102109.00;4975591;28;45356;-52
2022/10/18 01:31:47;;;;;;;;;11.50;9.00;;;;;18.12;94.57;102109.84;4975293;28;45356;-51
2022/10/18 01:34:16;;;;;;;;;14.00;10.50;;;;;18.12;94.81;102114.38;4975835;28;45429;-48
2022/10/18 01:36:47;;;;;;;;;8.50;8.00;;;;;18.12;94.83;102117.06;4975181;28;46179;-48
2022/10/18 01:39:21;;;;;;;;;10.50;10.50;;;;;18.09;94.34;102123.63;4975038;28;45524;-52
2022/10/18 01:41:50;;;;;;;;;16.25;13.75;;;;;18.06;93.77;102115.84;4975444;28;45413;-49
2022/10/18 01:44:20;;;;;;;;;13.00;11.50;;;;;17.97;93.19;102097.97;4975685;28;45294;-53
2022/10/18 01:46:45;;;;;;;;;14.00;13.50;;;;;18.06;93.49;102110.47;4975025;28;45350;-52
2022/10/18 01:49:11;;;;;;;;;10.75;10.75;;;;;18.05;93.18;102111.47;4975255;28;45429;-48
2022/10/18 01:51:37;;;;;;;;;15.50;8.00;;;;;18.04;93.54;102114.34;4975473;28;45471;-53
2022/10/18 01:54:02;;;;;;;;;13.75;11.25;;;;;18.00;93.47;102118.38;4975228;28;45460;-49
2022/10/18 01:56:49;;;;;;;;;14.50;12.50;;;;;17.91;93.69;102101.34;4975227;28;45586;-50
2022/10/18 01:59:36;;;;;;;;;13.25;10.75;;;;;17.91;94.48;102104.03;4975209;28;45356;-51
2022/10/18 02:02:16;;;;;;;;;13.75;11.00;;;;;17.83;95.23;102101.28;4975548;28;45478;-51
2022/10/18 02:05:07;;;;;;;;;14.25;13.50;;;;;17.82;95.78;102102.28;5007577;28;45456;-50
2022/10/18 02:07:52;;;;;;;;;13.25;13.25;;;;;17.74;95.50;102105.81;5015974;28;45328;-53
2022/10/18 02:10:29;;;;;;;;;16.00;15.75;;;;;17.66;95.59;102100.34;5016788;28;45277;-51
2022/10/18 02:12:56;;;;;;;;;14.25;12.50;;;;;17.65;96.02;102104.84;5016907;28;45336;-51
2022/10/18 02:15:31;;;;;;;;;15.00;14.75;;;;;17.58;96.30;102103.81;5017066;28;45421;-48
2022/10/18 02:17:57;;;;;;;;;12.75;10.00;;;;;17.56;96.92;102105.81;5017314;28;46031;-50
2022/10/18 02:20:25;;;;;;;;;14.75;11.25;;;;;17.54;97.49;102104.31;5019332;28;45381;-48
2022/10/18 02:22:54;;;;;;;;;20.00;15.50;;;;;17.51;97.39;102101.94;5020043;28;45452;-49
2022/10/18 02:25:26;;;;;;;;;16.00;14.00;;;;;17.43;97.22;102100.03;5020453;28;45344;-47
2022/10/18 02:27:52;;;;;;;;;15.00;14.50;;;;;17.42;97.66;102106.41;5019809;28;45282;-48
2022/10/18 02:30:21;;;;;;;;;14.00;12.50;;;;;17.41;97.93;102108.25;5019877;28;45373;-49
2022/10/18 02:32:57;;;;;;;;;15.25;15.00;;;;;17.36;97.83;102105.22;5020204;28;45444;-51
2022/10/18 02:35:32;;;;;;;;;17.25;14.25;;;;;17.29;97.90;102108.69;5020149;28;45525;-50
2022/10/18 02:37:59;;;;;;;;;15.25;15.00;;;;;17.30;97.95;102121.13;5019559;28;47381;-51
2022/10/18 02:40:25;;;;;;;;;15.50;14.00;;;;;17.19;98.51;102109.63;5019882;28;45470;-49
2022/10/18 02:42:55;;;;;;;;;16.75;13.50;;;;;17.25;98.87;102121.59;5019738;28;45463;-49
2022/10/18 02:45:21;;;;;;;;;19.50;16.50;;;;;17.22;98.91;102121.91;5019832;28;45503;-48
2022/10/18 02:47:46;;;;;;;;;19.25;12.25;;;;;17.18;98.95;102124.06;5019518;28;46239;-47
2022/10/18 02:50:13;;;;;;;;;20.25;14.00;;;;;17.17;98.84;102130.44;5019508;28;45440;-49
2022/10/18 02:52:38;;;;;;;;;17.50;14.00;;;;;17.18;98.50;102140.19;5019653;28;45266;-51
2022/10/18 02:55:04;;;;;;;;;22.25;14.25;;;;;17.21;98.00;102139.03;5019839;28;45222;-48
2022/10/18 02:57:30;;;;;;;;;17.00;14.25;;;;;17.23;98.58;102138.88;5019164;28;46675;-47
2022/10/18 02:59:55;;;;;;;;;15.25;15.25;;;;;16.93;98.64;102103.34;5019610;28;45318;-48
2022/10/18 03:02:21;;;;;;;;;20.25;16.75;;;;;17.25;98.34;102140.41;5019644;28;45212;-48
2022/10/18 03:04:46;;;;;;;;;18.75;15.00;;;;;17.28;97.74;102140.13;5019712;28;45358;-52
2022/10/18 03:07:12;;;;;;;;;17.25;15.00;;;;;17.28;98.23;102139.28;5019212;28;46271;-49
2022/10/18 03:09:37;;;;;;;;;17.50;15.25;;;;;17.31;98.02;102144.31;5001378;28;45531;-49
2022/10/18 03:12:02;;;;;;;;;25.75;20.50;;;;;17.33;97.87;102142.34;5019387;28;45373;-52
2022/10/18 03:14:28;;;;;;;;;18.00;18.00;;;;;17.33;97.76;102142.34;5019583;28;45167;-49
2022/10/18 03:16:53;;;;;;;;;21.75;20.00;;;;;17.33;97.17;102134.25;5019079;28;45963;-50
2022/10/18 03:19:19;;;;;;;;;25.67;19.33;;;;;17.40;97.03;102143.38;5019175;28;45385;-47
2022/10/18 03:21:44;;;;;;;;;23.50;21.00;;;;;17.38;96.77;102148.91;5019337;28;45324;-48
2022/10/18 03:24:09;;;;;;;;;20.67;20.67;;;;;17.39;96.94;102150.59;5019248;28;45373;-48
2022/10/18 03:26:35;;;;;;;;;23.50;16.50;;;;;17.44;96.59;102158.19;5018944;28;46122;-51
2022/10/18 03:29:00;;;;;;;;;25.75;17.75;;;;;17.46;95.99;102164.28;5018437;28;45409;-50
2022/10/18 03:31:25;;;;;;;;;19.50;15.75;;;;;17.44;95.83;102163.56;5018523;28;45405;-51
2022/10/18 03:33:51;;;;;;;;;27.00;19.00;;;;;17.43;95.58;102159.19;5019087;28;45365;-51
2022/10/18 03:36:16;;;;;;;;;16.50;15.25;;;;;17.44;95.12;102166.25;5019031;28;45538;-48
2022/10/18 03:38:42;;;;;;;;;16.25;14.25;;;;;17.43;95.20;102169.97;5018795;28;45400;-49
2022/10/18 03:41:07;;;;;;;;;17.00;16.00;;;;;17.42;95.46;102161.06;5019242;28;45466;-49
2022/10/18 03:43:33;;;;;;;;;24.25;17.25;;;;;17.35;95.97;102164.53;5019316;28;45444;-48
2022/10/18 03:45:59;;;;;;;;;17.25;15.00;;;;;17.26;96.02;102154.72;5018560;28;46389;-46
2022/10/18 03:48:24;;;;;;;;;17.50;13.25;;;;;17.38;96.34;102166.91;5018792;28;45235;-47
2022/10/18 03:50:50;;;;;;;;;19.00;15.00;;;;;17.44;96.12;102166.25;5000748;28;45264;-51
2022/10/18 03:53:15;;;;;;;;;23.25;16.75;;;;;17.48;95.59;102178.41;5018928;28;45299;-47
2022/10/18 03:55:40;;;;;;;;;19.00;15.50;;;;;17.49;94.81;102185.50;5018382;28;46208;-47
2022/10/18 03:58:06;;;;;;;;;16.75;13.75;;;;;17.40;94.99;102167.56;5018325;28;45376;-47
2022/10/18 04:00:32;;;;;;;;;19.50;16.50;;;;;17.41;95.46;102185.44;5018611;28;45201;-50
2022/10/18 04:02:57;;;;;;;;;15.75;15.75;;;;;17.34;95.09;102160.16;5018672;28;45288;-50
2022/10/18 04:05:23;;;;;;;;;20.75;16.50;;;;;17.39;95.04;102172.13;5000370;28;46893;-50
2022/10/18 04:07:49;;;;;;;;;17.00;13.50;;;;;17.40;95.24;102189.09;5018343;28;45394;-48
2022/10/18 04:10:14;;;;;;;;;19.25;14.75;;;;;17.37;95.88;102184.06;5018368;28;45782;-50
2022/10/18 04:12:39;;;;;;;;;15.25;13.50;;;;;17.40;95.63;102189.09;5018513;28;45441;-50
2022/10/18 04:15:05;;;;;;;;;21.25;14.25;;;;;17.37;95.63;102184.91;5018183;28;45575;-52
2022/10/18 04:17:31;;;;;;;;;18.25;13.50;;;;;17.38;95.74;102188.44;5018301;28;45316;-50
2022/10/18 04:19:56;;;;;;;;;17.50;13.50;;;;;17.39;95.81;102190.09;5018213;28;45462;-52
2022/10/18 04:22:21;;;;;;;;;15.25;13.75;;;;;17.35;95.88;102189.56;5018392;28;45383;-48
2022/10/18 04:24:47;;;;;;;;;17.50;16.25;;;;;17.35;95.24;102183.34;5018190;28;46010;-48
2022/10/18 04:27:12;;;;;;;;;20.50;15.75;;;;;17.38;95.57;102188.44;5018148;28;45433;-48
2022/10/18 04:29:38;;;;;;;;;18.75;15.50;;;;;17.36;94.80;102176.97;5000774;28;45354;-49
2022/10/18 04:32:03;;;;;;;;;17.75;16.50;;;;;17.44;94.85;102193.16;5018206;28;45402;-49
2022/10/18 04:34:28;;;;;;;;;19.25;16.00;;;;;17.44;94.38;102190.47;5017881;28;46093;-47
2022/10/18 04:36:54;;;;;;;;;18.00;15.75;;;;;17.44;94.43;102185.09;5018095;28;45352;-49
2022/10/18 04:39:19;;;;;;;;;14.50;13.25;;;;;17.42;94.42;102185.25;5017816;28;45454;-48
2022/10/18 04:41:44;;;;;;;;;19.75;15.00;;;;;17.44;94.41;102183.28;5017914;28;45362;-48
2022/10/18 04:44:10;;;;;;;;;16.00;14.00;;;;;17.48;94.62;102189.16;5017751;28;45320;-51
2022/10/18 04:46:35;;;;;;;;;11.25;10.50;;;;;17.50;94.38;102180.97;5017839;28;45191;-53
2022/10/18 04:49:01;;;;;;;;;12.75;11.50;;;;;17.51;94.33;102182.63;5018272;28;45347;-52
2022/10/18 04:51:27;;;;;;;;;14.00;14.00;;;;;17.52;94.21;102187.84;5017935;28;45358;-48
2022/10/18 04:53:52;;;;;;;;;12.50;12.25;;;;;17.53;93.94;102184.19;5017438;28;46239;-50
2022/10/18 04:56:18;;;;;;;;;15.75;14.50;;;;;17.53;93.78;102184.19;5017503;28;45404;-50
2022/10/18 04:58:43;;;;;;;;;15.00;11.50;;;;;17.51;93.45;102191.56;5017716;28;45590;-51
2022/10/18 05:01:09;;;;;;;;;12.75;11.25;;;;;17.51;93.67;102199.63;5017857;28;45457;-49
2022/10/18 05:03:34;;;;;;;;;18.75;14.00;;;;;17.49;93.18;102201.63;5017452;28;46647;-51
2022/10/18 05:05:59;;;;;;;;;16.00;11.75;;;;;17.42;94.06;102200.56;5017514;28;45317;-51
2022/10/18 05:08:25;;;;;;;;;13.25;11.50;;;;;17.39;93.88;102207.09;5017501;28;45426;-50
2022/10/18 05:10:50;;;;;;;;;16.75;14.50;;;;;17.34;94.20;102195.13;5017712;28;45357;-47
2022/10/18 05:13:16;;;;;;;;;16.25;15.00;;;;;17.27;94.98;102202.94;4999505;28;45869;-49
2022/10/18 05:15:41;;;;;;;;;20.25;18.00;;;;;17.23;95.60;102206.94;5017357;28;45396;-47
2022/10/18 05:18:06;;;;;;;;;14.75;13.00;;;;;17.19;95.71;102206.44;5017506;28;45435;-48
2022/10/18 05:20:32;;;;;;;;;19.75;15.00;;;;;17.15;96.22;102209.56;5017540;28;45356;-52
2022/10/18 05:22:58;;;;;;;;;19.75;15.75;;;;;17.12;96.14;102204.50;5017302;28;45783;-51
2022/10/18 05:25:23;;;;;;;;;18.75;14.00;;;;;17.07;96.17;102202.28;5017073;28;45353;-50
2022/10/18 05:27:48;;;;;;;;;19.50;15.75;;;;;17.04;96.98;102205.28;5017337;28;45511;-52
2022/10/18 05:30:14;;;;;;;;;18.50;15.00;;;;;17.02;96.90;102203.72;5017550;28;45400;-52
2022/10/18 05:32:39;;;;;;;;;16.50;13.25;;;;;17.00;97.06;102203.06;5017075;28;45974;-48
2022/10/18 05:35:05;;;;;;;;;17.00;15.00;;;;;16.98;97.02;102202.34;5017223;28;45343;-48
2022/10/18 05:37:30;;;;;;;;;16.50;13.50;;;;;16.59;97.46;102148.84;5017092;28;45325;-50
2022/10/18 05:39:56;;;;;;;;;15.25;13.00;;;;;16.92;97.47;102199.28;5017112;28;45331;-48
2022/10/18 05:42:21;;;;;;;;;18.00;13.75;;;;;16.91;97.52;102200.28;5016985;28;47031;-47
2022/10/18 05:44:47;;;;;;;;;17.75;12.00;;;;;16.89;97.22;102202.25;5017090;28;45259;-46
2022/10/18 05:47:12;;;;;;;;;16.00;14.25;;;;;16.87;97.19;102200.75;5017015;28;45399;-50
2022/10/18 05:49:37;;;;;;;;;13.75;13.50;;;;;16.82;97.49;102194.97;5017258;28;45231;-49
2022/10/18 05:52:03;;;;;;;;;15.50;12.75;;;;;16.81;97.56;102202.19;5016327;28;45456;-53
2022/10/18 05:54:28;;;;;;;;;15.25;13.50;;;;;16.81;97.60;102217.47;5016817;28;45238;-52
2022/10/18 05:56:53;;;;;;;;;13.75;13.75;;;;;16.79;97.25;102208.72;5017203;28;45414;-50
2022/10/18 05:59:19;;;;;;;;;15.00;12.25;;;;;16.77;97.49;102216.94;5017571;28;45437;-52
2022/10/18 06:01:44;;;;;;;;;20.67;13.00;;;;;16.76;97.62;102219.75;5017305;28;45319;-54
2022/10/18 06:04:10;;;;;;;;;12.75;11.50;;;;;16.74;98.04;102227.97;5017464;28;45479;-48
2022/10/18 06:06:36;;;;;;;;;13.50;12.25;;;;;16.72;98.21;102224.56;5017075;28;45372;-49
2022/10/18 06:09:03;;;;;;;;;16.25;13.00;;;;;16.73;97.98;102230.81;5016977;28;45322;-48
2022/10/18 06:11:30;;;;;;;;;16.00;11.00;;;;;16.72;97.96;102238.00;5016744;28;46020;-50
2022/10/18 06:13:56;;;;;;;;;13.50;12.75;;;;;16.76;97.83;102235.88;5016495;28;45341;-49
2022/10/18 06:16:24;;;;;;;;;13.50;11.75;;;;;16.77;97.38;102234.88;4998622;28;45414;-46
2022/10/18 06:18:51;;;;;;;;;14.75;13.25;;;;;16.85;96.90;102235.81;5016814;28;45253;-49
2022/10/18 06:21:17;;;;;;;;;11.25;11.25;;;;;16.90;96.60;102238.06;5016316;28;46223;-51
2022/10/18 06:23:47;;;;;;;;;13.00;12.00;;;;;16.97;96.42;102247.19;5016460;28;45451;-51
2022/10/18 06:26:13;;;;;;;;;11.25;9.25;;;;;17.01;96.25;102237.84;5016432;28;45518;-51
2022/10/18 06:28:38;;;;;;;;;13.25;12.75;;;;;17.07;96.06;102242.63;5016772;28;45321;-49
2022/10/18 06:31:04;;;;;;;;;13.75;13.00;;;;;17.10;95.84;102236.06;5016411;28;46438;-48
2022/10/18 06:33:31;;;;;;;;;14.00;13.50;;;;;17.18;95.73;102237.00;5016441;28;45447;-48
2022/10/18 06:35:59;;;;;;;;;12.50;11.00;;;;;17.21;94.72;102244.75;5016532;28;45297;-50
2022/10/18 06:38:26;;;;;;;;;12.75;10.00;;;;;17.24;94.29;102235.56;5016661;28;45527;-48
2022/10/18 06:40:52;;;;;;;;;12.25;9.75;;;;;17.28;94.05;102244.16;5016084;28;46296;-48
2022/10/18 06:43:17;;;;;;;;;13.25;10.25;;;;;17.31;94.08;102246.53;5016199;28;45310;-48
2022/10/18 06:45:42;;;;;;;;;8.25;7.75;;;;;17.36;93.87;102250.47;5016250;28;45361;-48
2022/10/18 06:48:08;;;;;;;;;11.75;10.00;;;;;17.37;93.22;102246.75;5016421;28;45344;-47
2022/10/18 06:50:33;;;;;;;;;9.00;9.00;;;;;17.41;93.21;102252.69;4998329;28;46047;-48
2022/10/18 06:52:58;;;;;;;;;12.00;11.00;;;;;17.41;92.71;102252.69;5016263;28;45362;-49
2022/10/18 06:55:24;;;;;;;;;9.00;9.00;;;;;17.45;92.42;102256.75;5016196;28;45549;-50
2022/10/18 06:57:49;;;;;;;;;10.75;10.75;;;;;17.51;92.25;102257.97;5016439;28;45398;-50
2022/10/18 07:00:14;;;;;;;;;8.00;8.00;;;;;17.54;91.95;102263.06;5015288;28;45396;-52
2022/10/18 07:02:40;;;;;;;;;13.25;10.25;;;;;17.53;91.86;102270.28;5016027;28;45415;-52
2022/10/18 07:05:06;;;;;;;;;11.25;11.25;;;;;17.43;92.28;102256.03;5018660;28;45818;-50
2022/10/18 07:07:32;;;;;;;;;16.50;11.50;;;;;17.51;92.20;102264.19;5019642;28;45535;-50
2022/10/18 07:09:57;;;;;;;;;11.75;8.75;;;;;17.62;91.48;102272.03;5019209;28;46156;-49
2022/10/18 07:12:23;;;;;;;;;15.00;10.00;;;;;17.59;91.39;102266.13;5019170;28;45369;-52
2022/10/18 07:14:48;;;;;;;;;14.00;10.75;;;;;17.65;91.24;102281.63;5019591;28;45647;-49
2022/10/18 07:17:13;;;;;;;;;13.25;12.75;;;;;17.68;91.12;102282.16;5019685;28;45672;-50
2022/10/18 07:19:39;;;;;;;;;8.50;8.00;;;;;17.64;91.13;102271.88;5019230;28;47287;-52
2022/10/18 07:22:04;;;;;;;;;14.50;11.25;;;;;17.63;90.84;102265.66;5019238;28;45437;-50
2022/10/18 07:24:29;;;;;;;;;12.75;12.25;;;;;17.77;90.53;102277.72;5019383;28;45318;-48
2022/10/18 07:26:55;;;;;;;;;10.00;10.00;;;;;17.83;90.00;102279.81;5019659;28;45217;-48
2022/10/18 07:29:20;;;;;;;;;10.00;10.00;;;;;17.81;89.73;102276.41;5019218;28;45416;-49
2022/10/18 07:31:45;;;;;;;;;10.75;10.75;;;;;17.91;89.53;102287.09;5019253;28;45374;-50
2022/10/18 07:34:12;;;;;;;;;11.75;10.25;;;;;17.92;89.34;102295.00;5019130;28;45286;-51
2022/10/18 07:36:37;;;;;;;;;15.75;13.00;;;;;17.97;89.31;102285.63;5019290;28;45423;-52
2022/10/18 07:39:03;;;;;;;;;10.25;10.25;;;;;18.04;88.90;102292.91;5018886;28;47057;-49
2022/10/18 07:41:32;;;;;;;;;15.75;10.75;;;;;18.14;88.42;102292.78;5018871;28;45239;-49
2022/10/18 07:43:57;;;;;;;;;15.75;11.50;;;;;18.13;88.25;102269.56;5018892;28;45425;-49
2022/10/18 07:46:23;;;;;;;;;13.50;10.75;;;;;18.30;87.46;102294.75;5019212;28;45563;-49
2022/10/18 07:48:49;;;;;;;;;11.00;10.00;;;;;18.38;87.05;102298.34;5018889;28;45411;-51
2022/10/18 07:51:15;;;;;;;;;16.75;10.50;;;;;18.32;86.53;102284.63;5019016;28;45283;-47
2022/10/18 07:53:41;;;;;;;;;12.50;11.00;;;;;18.48;86.29;102300.06;5018844;28;45354;-51
2022/10/18 07:56:14;;;;;;;;;11.25;11.25;;;;;18.53;85.84;102308.50;5018700;28;45435;-51
2022/10/18 07:58:43;;;;;;;;;14.00;10.00;;;;;18.54;85.66;102302.09;5018666;28;46243;-50
2022/10/18 08:01:09;;;;;;;;;10.00;8.75;;;;;18.77;85.29;102322.13;5018650;28;45247;-49
2022/10/18 08:03:35;;;;;;;;;14.25;11.00;;;;;18.78;84.11;102304.94;5018696;28;45367;-51
2022/10/18 08:06:02;;;;;;;;;13.00;10.50;;;;;18.93;83.81;102321.34;5018760;28;45423;-48
2022/10/18 08:08:28;;;;;;;;;10.25;9.50;;;;;18.89;83.45;102322.69;5018510;28;46240;-50
2022/10/18 08:10:54;;;;;;;;;9.80;9.00;;;;;18.89;83.38;102322.69;5018463;28;45379;-48
2022/10/18 08:13:20;;;;;;;;;11.00;10.50;;;;;18.88;83.54;102323.69;5018807;28;45253;-48
2022/10/18 08:15:46;;;;;;;;;9.25;7.50;;;;;18.80;82.36;102327.19;5018252;28;45328;-48
2022/10/18 08:18:11;;;;;;;;;9.00;7.00;;;;;18.88;83.71;102340.72;5018199;28;47240;-50
2022/10/18 08:20:42;;;;;;;;;13.25;9.00;;;;;18.93;82.96;102342.91;5018458;28;45171;-47
2022/10/18 08:23:08;;;;;;;;;11.80;9.00;;;;;18.97;82.67;102341.59;5018689;28;45415;-49
2022/10/18 08:25:34;;;;;;;;;10.25;7.75;;;;;19.01;82.40;102342.97;5018724;28;45380;-49
2022/10/18 08:28:00;;;;;;;;;9.60;9.40;;;;;19.13;82.34;102349.75;5018180;28;45380;-49
2022/10/18 08:30:26;;;;;;;;;8.00;6.80;;;;;19.27;80.88;102347.41;5018418;28;45375;-49
2022/10/18 08:32:52;;;;;;;;;6.50;6.50;;;;;19.33;80.32;102350.28;5018597;28;45421;-49
2022/10/18 08:35:17;;;;;;;;;8.25;7.00;;;;;19.16;78.29;102300.00;5018775;28;45390;-47
2022/10/18 08:37:44;;;;;;;;;11.00;7.25;;;;;19.60;78.68;102349.16;5018230;28;45913;-51
2022/10/18 08:40:12;;;;;;;;;9.40;9.40;;;;;19.69;77.83;102341.94;5018132;28;45237;-50
2022/10/18 08:42:56;;;;;;;;;8.20;5.80;;;;;19.69;77.65;102334.69;5018106;28;45448;-51
2022/10/18 08:45:23;;;;;;;;;8.50;6.00;;;;;19.81;77.70;102347.88;5018390;28;45325;-52
2022/10/18 08:47:50;;;;;;;;;6.00;4.40;;;;;19.85;77.43;102344.66;5017971;28;46273;-51
2022/10/18 08:50:21;;;;;;;;;7.60;7.00;;;;;20.10;76.95;102348.19;5018026;28;45291;-48
2022/10/18 08:52:50;;;;;;;;;4.00;3.40;;;;;20.93;75.99;102344.25;5018116;28;45336;-50
2022/10/18 08:55:25;;;;;;;;;3.20;3.20;;;;;21.50;73.34;102335.00;5018325;28;45505;-51
2022/10/18 08:57:51;;;;;;;;;4.80;4.80;;;;;22.36;66.89;102323.75;5017536;28;45444;-49
2022/10/18 09:00:19;;;;;;;;;5.25;5.25;;;;;21.80;68.19;102309.69;5017962;28;45389;-50
2022/10/18 09:03:03;;;;;;;;;6.00;5.00;;;;;21.54;70.34;102330.91;5017859;28;45333;-50
2022/10/18 09:05:59;;;;;;;;;8.00;5.40;;;;;21.24;71.45;102327.16;5017979;28;45422;-50
2022/10/18 09:09:02;;;;;;;;;4.40;4.40;;;;;21.06;72.17;102327.44;5016619;28;47738;-48
2022/10/18 09:11:54;;;;;;;;;9.00;5.00;;;;;21.08;72.14;102330.84;5017705;28;45278;-50
2022/10/18 09:14:45;;;;;;;;;8.80;6.80;;;;;21.67;70.54;102331.97;5017905;28;45427;-47
2022/10/18 09:17:41;;;;;;;;;4.00;4.00;;;;;22.96;66.30;102327.28;5017936;28;45324;-53
2022/10/18 09:20:25;;;;;;;;;4.00;4.00;;;;;23.58;67.11;102315.00;5017609;28;45519;-50
2022/10/18 09:23:05;;;;;;;;;3.80;2.20;;;;;24.24;63.33;102318.28;5017623;28;45428;-50
2022/10/18 09:25:54;;;;;;;;;7.00;5.20;;;;;24.84;61.59;102332.25;5017747;28;45241;-50
2022/10/18 09:28:41;;;;;;;;;4.80;4.00;;;;;24.62;59.30;102337.78;5016647;28;45420;-49
2022/10/18 09:31:15;;;;;;;;;4.60;3.40;;;;;24.10;60.34;102330.97;5017764;28;45476;-51
2022/10/18 09:34:01;;;;;;;;;8.80;4.80;;;;;23.65;61.14;102332.25;5017477;28;45345;-49
2022/10/18 09:36:36;;;;;;;;;6.20;4.80;;;;;23.39;62.48;102324.66;5017178;28;45305;-49
2022/10/18 09:39:12;;;;;;;;;4.00;3.60;;;;;23.26;63.18;102319.91;5017545;28;45469;-48
2022/10/18 09:41:47;;;;;;;;;5.20;4.40;;;;;22.96;63.76;102331.88;5016972;28;46076;-50
2022/10/18 09:44:20;;;;;;;;;3.60;3.00;;;;;22.98;65.21;102327.09;5017378;28;45436;-50
2022/10/18 09:46:50;;;;;;;;;6.60;5.00;;;;;22.79;64.41;102331.19;5017535;28;45321;-48
2022/10/18 09:49:21;;;;;;;;;7.40;4.60;;;;;22.38;65.87;102331.69;5017499;28;45482;-49
2022/10/18 09:51:48;;;;;;;;;5.00;4.00;;;;;21.98;65.73;102328.31;5017080;28;46287;-51
2022/10/18 09:54:25;;;;;;;;;7.20;6.40;;;;;21.76;68.17;102335.47;5017218;28;45360;-50
2022/10/18 09:57:03;;;;;;;;;6.00;6.00;;;;;21.65;67.67;102323.19;5016881;28;45302;-49
2022/10/18 09:59:39;;;;;;;;;3.80;3.60;;;;;21.72;68.19;102342.28;5017245;28;45500;-53
2022/10/18 10:02:08;;;;;;;;;4.00;3.80;;;;;21.80;67.71;102335.94;5016877;28;47182;-49
2022/10/18 10:04:33;;;;;;;;;3.60;3.00;;;;;21.77;67.80;102337.16;5017222;28;45409;-48
2022/10/18 10:07:00;;;;;;;;;3.25;3.25;;;;;21.56;68.64;102342.41;5017047;28;45341;-51
2022/10/18 10:09:35;;;;;;;;;4.20;4.20;;;;;21.59;68.17;102334.75;5017356;28;45287;-50
2022/10/18 10:12:01;;;;;;;;;4.20;4.20;;;;;21.40;68.70;102333.34;5016671;28;46431;-50
2022/10/18 10:14:29;;;;;;;;;3.00;3.00;;;;;21.36;69.18;102334.75;5016913;28;45346;-50
2022/10/18 10:17:02;;;;;;;;;3.80;3.80;;;;;21.28;69.47;102331.19;5016982;28;45277;-49
2022/10/18 10:19:38;;;;;;;;;4.60;4.00;;;;;21.17;70.12;102338.72;5016984;28;45433;-51
2022/10/18 10:22:13;;;;;;;;;5.80;5.00;;;;;21.31;69.92;102338.97;5015720;28;45413;-48
2022/10/18 10:24:50;;;;;;;;;5.00;4.20;;;;;21.38;69.88;102348.09;5016925;28;45238;-48
2022/10/18 10:27:42;;;;;;;;;4.00;3.40;;;;;21.40;69.75;102343.34;5016733;28;45403;-50
2022/10/18 10:30:29;;;;;;;;;8.80;4.40;;;;;21.36;69.52;102339.31;5016886;28;45215;-48
2022/10/18 10:32:55;;;;;;;;;5.80;5.00;;;;;21.25;69.68;102350.53;4998725;28;47406;-48
2022/10/18 10:35:39;;;;;;;;;3.80;3.80;;;;;21.02;70.43;102347.75;5016802;28;45354;-51
2022/10/18 10:38:05;;;;;;;;;3.00;3.00;;;;;20.93;70.46;102341.53;5016924;28;45841;-50
2022/10/18 10:40:49;;;;;;;;;3.00;3.00;;;;;20.82;71.29;102352.78;5019931;28;45337;-48
2022/10/18 10:43:24;;;;;;;;;5.40;2.40;;;;;20.86;71.35;102346.00;5019921;28;46093;-49
2022/10/18 10:46:01;;;;;;;;;2.60;2.60;;;;;21.03;71.08;102339.50;5019985;28;45425;-50
2022/10/18 10:48:32;;;;;;;;;2.20;2.00;;;;;21.35;70.42;102338.47;5002243;28;45330;-52
2022/10/18 10:51:05;;;;;;;;;2.20;2.20;;;;;21.52;69.84;102333.78;5020111;28;45558;-49
2022/10/18 10:53:43;;;;;;;;;3.40;1.20;;;;;21.57;69.61;102327.81;5019732;28;46095;-49
2022/10/18 10:56:25;;;;;;;;;1.20;1.20;;;;;21.46;68.89;102341.81;5019835;28;45471;-45
2022/10/18 10:58:52;;;;;;;;;1.00;1.00;;;;;21.46;68.47;102339.09;5019619;28;45310;-50
2022/10/18 11:01:31;;;;;;;;;2.60;2.60;;;;;21.35;69.11;102324.09;5019976;28;45474;-47
2022/10/18 11:04:21;;;;;;;;;3.40;3.00;;;;;21.31;69.53;102330.84;5019105;28;45378;-50
2022/10/18 11:07:18;;;;;;;;;3.60;3.40;;;;;21.25;69.67;102331.59;5019646;28;45338;-49
2022/10/18 11:10:02;;;;;;;;;1.40;1.40;;;;;21.25;69.38;102327.00;4977981;28;45343;-50
2022/10/18 11:12:32;;;;;;;;;2.00;2.00;;;;;21.24;68.98;102330.75;4977912;28;45477;-48
2022/10/18 11:15:10;;;;;;;;;3.20;3.20;;;;;21.16;69.55;102325.38;4977511;28;47077;-51
2022/10/18 11:18:00;;;;;;;;;1.60;1.20;;;;;21.18;69.96;102329.56;4977794;28;45282;-50
2022/10/18 11:20:49;;;;;;;;;3.00;3.00;;;;;21.17;69.59;102330.59;4977675;28;45419;-49
2022/10/18 11:23:16;;;;;;;;;3.20;2.40;;;;;20.92;70.51;102326.34;4977859;28;45516;-47
2022/10/18 11:26:03;;;;;;;;;4.80;3.40;;;;;20.85;71.01;102326.19;4977638;28;45346;-51